Subic Bay, Philippines

5:23 PM PHT on October 02, 2014 (GMT +0800)
Subic Bay International | Change Station
CLOSE
Current Station
Airport
Location: Subic Bay,
Elevation: 62 ft
Nearby Weather Stations

Elev 62 ft 14.79 °N, 120.27 °E | Updated 23 minutes ago

Mostly Cloudy
Mostly Cloudy
79 °F
Feels Like 79 °F
N
0
Wind Variable Wind from North

Today
High -- | Low -- °F
--% Chance of Precip.
Yesterday
High -- | Low -- °F
Precip. -- in
5:48 AM 5:47 PM
First Quarter, 57% visible
Pressure 29.68 in
Visibility 6.2 miles
Clouds Few 1800 ft
Mostly Cloudy 8000 ft
Dew Point 75 °F
Humidity 89%
Rainfall 0.00 in
Snow Depth Not available.
UV 0 out of 12
Pollen Not available.
Air Quality Not available.
Flu Activity Not available.
METAR RPLB 020900Z 00000KT 9999 FEW018 BKN080 26/24 Q1005 RETS RMK A2968

More Conditions Fewer Conditions

Pressure 29.68 in
Visibility 6.2 miles
Clouds Few 1800 ft
Mostly Cloudy 8000 ft
Dew Point 75 °F
Humidity 89%
Rainfall 0.00 in
Snow Depth Not available.
UV 0 out of 12
Pollen Not available.
Air Quality Not available.
Flu Activity Not available.
METAR RPLB 020900Z 00000KT 9999 FEW018 BKN080 26/24 Q1005 RETS RMK A2968

More Conditions Fewer Conditions

10-Day Weather Forecast

Almanac

Astronomy

Oct. 02, 2014 Rise Set
Actual Time 5:48 AM PHT 5:47 PM PHT
Civil Twilight 5:27 AM PHT 6:09 PM PHT
Nautical Twilight 5:02 AM PHT 6:34 PM PHT
Astronomical Twilight 4:37 AM PHT 6:58 PM PHT
Moon 12:33 PM PHT No Moon Set
Length of Visible Light 12h 42m
Length of Day
11h 59m
Tomorrow will be 0m 49s shorter.
First Quarter, 57% of the Moon is Illuminated
Today
First Quarter
Oct 8
Full
Oct 15
Last Quarter
Oct 23
New
Oct 30
First Quarter

Yesterday's Extremes

Country Highs Country Lows

Community

WunderPhotos

Upload Photos

1,758,202 photos uploaded!

WunderBlogs® & News

By Dr. Jeff Masters
Director of Meteorology, Weather Underground
By Kari Strenfel
Meteorologist, Weather Underground
By Christopher C. Burt
Weather Historian, Weather Underground
October 2, 2014
October 2, 2014
October 2, 2014

Nearby

Snow Depth

Not available.

Earthquake Activity

City Distance Mag. Time & Date
No recent earthquake activity has been reported nearby.
Minimum magnitude displayed is 2.5.

Coastal Water Temperatures

Place Temperature
No Stations Reporting

Nearby Weather Stations